GMATT EDFH-ELLX
Flight info
| Callsign | GMATT |
|---|---|
| Flight time | N/A |
| Altitude | 16000 |
| Route | RUDOT2E RUDOT Y180 BITBU |
| Aircraft | A320/M-SDE3FGHIRWY/LB1 |
Departure
| Time | 2026-05-06 19:41 |
|---|---|
| Airport | Frankfurt-Hahn Airport (EDFH) |
Arrival
| Time | N/A |
|---|---|
| Airport | Luxembourg-Findel International Airport (ELLX) |
| Time | Latitude | Longitude | Altitude | Speed | Heading |
|---|---|---|---|---|---|
| 2026-05-06 19:28 | 49.94642 | 7.26805 | 1620 ft | 0 kts | 212° |
| 2026-05-06 19:34 | 49.94648 | 7.26810 | 1621 ft | 4 kts | 213° |
| 2026-05-06 19:35 | 49.94666 | 7.26830 | 1618 ft | 4 kts | 225° |
| 2026-05-06 19:35 | 49.94675 | 7.26859 | 1622 ft | 4 kts | 290° |
| 2026-05-06 19:35 | 49.94666 | 7.26886 | 1620 ft | 0 kts | 303° |
| 2026-05-06 19:35 | 49.94679 | 7.26855 | 1622 ft | 2 kts | 303° |
| 2026-05-06 19:36 | 49.94680 | 7.26853 | 1622 ft | 0 kts | 303° |
| 2026-05-06 19:37 | 49.94686 | 7.26838 | 1617 ft | 8 kts | 303° |
| 2026-05-06 19:37 | 49.94712 | 7.26718 | 1624 ft | 14 kts | 238° |
| 2026-05-06 19:38 | 49.94630 | 7.26642 | 1622 ft | 13 kts | 193° |
| 2026-05-06 19:38 | 49.94545 | 7.26625 | 1619 ft | 12 kts | 208° |
| 2026-05-06 19:38 | 49.94475 | 7.26550 | 1620 ft | 12 kts | 215° |
| 2026-05-06 19:38 | 49.94397 | 7.26468 | 1623 ft | 21 kts | 212° |
| 2026-05-06 19:39 | 49.94243 | 7.26312 | 1631 ft | 28 kts | 213° |
| 2026-05-06 19:39 | 49.94075 | 7.26139 | 1632 ft | 31 kts | 214° |
| 2026-05-06 19:39 | 49.93900 | 7.25960 | 1631 ft | 21 kts | 213° |
| 2026-05-06 19:39 | 49.93825 | 7.25832 | 1634 ft | 13 kts | 275° |
| 2026-05-06 19:40 | 49.93873 | 7.25686 | 1633 ft | 17 kts | 303° |
| 2026-05-06 19:40 | 49.93954 | 7.25520 | 1631 ft | 19 kts | 334° |
| 2026-05-06 19:40 | 49.94084 | 7.25613 | 1631 ft | 33 kts | 32° |
| 2026-05-06 19:40 | 49.94573 | 7.26091 | 1620 ft | 129 kts | 32° |
| 2026-05-06 19:41 | 49.95500 | 7.26992 | 2002 ft | 168 kts | 30° |
| 2026-05-06 19:41 | 49.96472 | 7.27986 | 3137 ft | 167 kts | 27° |
| 2026-05-06 19:41 | 49.97549 | 7.28350 | 4242 ft | 156 kts | 350° |
| 2026-05-06 19:41 | 49.98582 | 7.27723 | 5021 ft | 170 kts | 329° |
| 2026-05-06 19:42 | 49.99510 | 7.26459 | 5715 ft | 186 kts | 310° |
| 2026-05-06 19:42 | 49.99994 | 7.24570 | 6344 ft | 206 kts | 277° |
| 2026-05-06 19:42 | 49.99931 | 7.22212 | 6844 ft | 229 kts | 266° |
| 2026-05-06 19:42 | 49.99718 | 7.19635 | 7577 ft | 247 kts | 265° |
| 2026-05-06 19:43 | 49.99515 | 7.16961 | 8709 ft | 251 kts | 267° |
| 2026-05-06 19:43 | 49.99373 | 7.14233 | 9861 ft | 255 kts | 269° |
| 2026-05-06 19:43 | 49.99290 | 7.11463 | 10913 ft | 259 kts | 270° |
| 2026-05-06 19:43 | 49.99249 | 7.08651 | 11952 ft | 263 kts | 270° |
| 2026-05-06 19:44 | 49.99237 | 7.05765 | 12869 ft | 276 kts | 270° |
| 2026-05-06 19:44 | 49.99244 | 7.02650 | 13492 ft | 301 kts | 270° |
| 2026-05-06 19:44 | 49.99261 | 6.99263 | 13986 ft | 325 kts | 270° |
| 2026-05-06 19:44 | 49.99284 | 6.95681 | 14682 ft | 336 kts | 270° |
| 2026-05-06 19:45 | 49.99309 | 6.92003 | 14699 ft | 337 kts | 270° |
| 2026-05-06 19:45 | 49.99310 | 6.88418 | 14456 ft | 329 kts | 269° |
| 2026-05-06 19:45 | 49.99315 | 6.84904 | 14248 ft | 319 kts | 277° |
| 2026-05-06 19:45 | 50.00089 | 6.81794 | 14127 ft | 306 kts | 306° |
| 2026-05-06 19:46 | 50.01581 | 6.79547 | 14007 ft | 294 kts | 325° |
| 2026-05-06 19:46 | 50.03376 | 6.78159 | 13888 ft | 285 kts | 341° |
| 2026-05-06 19:46 | 50.05300 | 6.77631 | 13752 ft | 279 kts | 357° |
| 2026-05-06 19:46 | 50.07194 | 6.78007 | 13628 ft | 272 kts | 15° |
| 2026-05-06 19:47 | 50.08891 | 6.79235 | 13481 ft | 268 kts | 32° |
| 2026-05-06 19:47 | 50.10255 | 6.81196 | 13222 ft | 268 kts | 50° |
| 2026-05-06 19:47 | 50.11169 | 6.83729 | 12952 ft | 270 kts | 68° |
| 2026-05-06 19:47 | 50.11568 | 6.86592 | 12857 ft | 272 kts | 82° |
| 2026-05-06 19:48 | 50.11707 | 6.89542 | 12866 ft | 275 kts | 87° |
| 2026-05-06 19:48 | 50.11759 | 6.92531 | 12866 ft | 276 kts | 88° |
| 2026-05-06 19:48 | 50.11783 | 6.95487 | 12865 ft | 277 kts | 89° |
| 2026-05-06 19:48 | 50.11805 | 6.98529 | 12866 ft | 277 kts | 88° |
| 2026-05-06 19:49 | 50.11820 | 7.01489 | 12862 ft | 277 kts | 92° |
| 2026-05-06 19:49 | 50.11464 | 7.04427 | 12865 ft | 277 kts | 110° |
| 2026-05-06 19:49 | 50.10554 | 7.07057 | 12865 ft | 277 kts | 128° |
| 2026-05-06 19:49 | 50.09153 | 7.09143 | 12866 ft | 275 kts | 147° |
| 2026-05-06 19:50 | 50.07465 | 7.10410 | 12865 ft | 273 kts | 166° |
| 2026-05-06 19:50 | 50.05603 | 7.10824 | 12866 ft | 270 kts | 183° |
| 2026-05-06 19:50 | 50.03767 | 7.10358 | 12867 ft | 267 kts | 201° |
| 2026-05-06 19:50 | 50.02125 | 7.09075 | 12867 ft | 264 kts | 218° |
| 2026-05-06 19:51 | 50.00812 | 7.07121 | 12867 ft | 261 kts | 234° |
| 2026-05-06 19:51 | 49.99928 | 7.04684 | 12866 ft | 259 kts | 251° |
| 2026-05-06 19:51 | 49.99550 | 7.01970 | 12866 ft | 257 kts | 268° |
| 2026-05-06 19:51 | 49.99510 | 6.99197 | 12868 ft | 257 kts | 269° |
| 2026-05-06 19:52 | 49.99466 | 6.96417 | 12862 ft | 257 kts | 269° |
| 2026-05-06 19:52 | 49.99417 | 6.93636 | 12863 ft | 257 kts | 269° |
| 2026-05-06 19:52 | 49.99367 | 6.90855 | 12859 ft | 257 kts | 269° |
| 2026-05-06 19:52 | 49.99317 | 6.88078 | 12860 ft | 257 kts | 269° |
| 2026-05-06 19:53 | 49.99491 | 6.85330 | 12860 ft | 257 kts | 284° |
| 2026-05-06 19:53 | 49.99797 | 6.82601 | 12858 ft | 258 kts | 270° |
| 2026-05-06 19:53 | 49.99340 | 6.79912 | 12716 ft | 261 kts | 242° |
| 2026-05-06 19:53 | 49.98112 | 6.77882 | 12408 ft | 263 kts | 213° |
| 2026-05-06 19:54 | 49.96371 | 6.76989 | 12094 ft | 266 kts | 188° |
| 2026-05-06 19:54 | 49.94557 | 6.76602 | 11832 ft | 262 kts | 192° |
| 2026-05-06 19:54 | 49.92759 | 6.76048 | 11449 ft | 265 kts | 193° |
| 2026-05-06 19:54 | 49.90946 | 6.75470 | 11068 ft | 267 kts | 193° |
| 2026-05-06 19:55 | 49.89122 | 6.74889 | 10702 ft | 268 kts | 193° |
| 2026-05-06 19:55 | 49.87290 | 6.74307 | 10328 ft | 269 kts | 193° |
| 2026-05-06 19:55 | 49.85450 | 6.74077 | 9975 ft | 270 kts | 177° |
| 2026-05-06 19:55 | 49.83586 | 6.74409 | 9600 ft | 269 kts | 174° |
| 2026-05-06 19:56 | 49.81746 | 6.74829 | 9293 ft | 265 kts | 169° |
| 2026-05-06 19:56 | 49.80088 | 6.75973 | 9026 ft | 260 kts | 148° |
| 2026-05-06 19:56 | 49.78597 | 6.77517 | 8765 ft | 256 kts | 146° |
| 2026-05-06 19:56 | 49.77146 | 6.79070 | 8507 ft | 252 kts | 145° |
| 2026-05-06 19:57 | 49.75720 | 6.80610 | 8246 ft | 249 kts | 145° |
| 2026-05-06 19:57 | 49.74314 | 6.82135 | 7985 ft | 243 kts | 145° |
| 2026-05-06 19:57 | 49.73113 | 6.83926 | 7737 ft | 240 kts | 122° |
| 2026-05-06 19:57 | 49.72528 | 6.86294 | 7486 ft | 235 kts | 95° |
| 2026-05-06 19:58 | 49.72667 | 6.88761 | 7234 ft | 229 kts | 69° |
| 2026-05-06 19:58 | 49.73278 | 6.91011 | 6999 ft | 227 kts | 63° |
| 2026-05-06 19:58 | 49.73906 | 6.93241 | 6747 ft | 226 kts | 63° |
| 2026-05-06 19:58 | 49.74529 | 6.95456 | 6503 ft | 224 kts | 63° |
| 2026-05-06 19:59 | 49.75147 | 6.97651 | 6305 ft | 220 kts | 63° |
| 2026-05-06 19:59 | 49.75743 | 6.99781 | 6125 ft | 209 kts | 63° |
| 2026-05-06 19:59 | 49.76303 | 7.01799 | 5921 ft | 201 kts | 63° |
| 2026-05-06 19:59 | 49.76852 | 7.03770 | 5708 ft | 199 kts | 63° |
| 2026-05-06 20:00 | 49.77397 | 7.05724 | 5501 ft | 197 kts | 63° |
| 2026-05-06 20:00 | 49.77942 | 7.07667 | 5315 ft | 197 kts | 63° |
| 2026-05-06 20:00 | 49.78500 | 7.09595 | 5127 ft | 195 kts | 58° |
| 2026-05-06 20:00 | 49.79364 | 7.11152 | 4956 ft | 190 kts | 33° |
| 2026-05-06 20:01 | 49.80466 | 7.12254 | 4725 ft | 188 kts | 28° |
| 2026-05-06 20:01 | 49.81559 | 7.13319 | 4466 ft | 182 kts | 29° |
| 2026-05-06 20:01 | 49.82589 | 7.14328 | 4233 ft | 171 kts | 28° |
| 2026-05-06 20:01 | 49.83577 | 7.15294 | 4031 ft | 166 kts | 29° |
| 2026-05-06 20:02 | 49.84548 | 7.16245 | 3791 ft | 165 kts | 28° |
| 2026-05-06 20:02 | 49.85510 | 7.17188 | 3553 ft | 161 kts | 28° |
| 2026-05-06 20:02 | 49.86382 | 7.18048 | 3344 ft | 137 kts | 27° |
| 2026-05-06 20:02 | 49.87147 | 7.18800 | 3171 ft | 126 kts | 27° |
| 2026-05-06 20:03 | 49.87873 | 7.19511 | 2996 ft | 122 kts | 27° |
| 2026-05-06 20:03 | 49.88578 | 7.20202 | 2844 ft | 119 kts | 27° |
| 2026-05-06 20:03 | 49.89269 | 7.20880 | 2681 ft | 117 kts | 28° |
| 2026-05-06 20:03 | 49.89951 | 7.21548 | 2529 ft | 117 kts | 27° |
| 2026-05-06 20:04 | 49.90650 | 7.22234 | 2361 ft | 117 kts | 27° |
| 2026-05-06 20:04 | 49.91329 | 7.22899 | 2182 ft | 117 kts | 29° |
| 2026-05-06 20:04 | 49.92012 | 7.23587 | 2020 ft | 118 kts | 27° |
| 2026-05-06 20:04 | 49.92702 | 7.24266 | 1854 ft | 117 kts | 26° |
| 2026-05-06 20:05 | 49.93394 | 7.24943 | 1710 ft | 118 kts | 28° |
| 2026-05-06 20:05 | 49.94075 | 7.25614 | 1633 ft | 109 kts | 30° |
| 2026-05-06 20:05 | 49.94605 | 7.26125 | 1621 ft | 75 kts | 32° |
| 2026-05-06 20:05 | 49.94994 | 7.26501 | 1619 ft | 47 kts | 31° |
| 2026-05-06 20:06 | 49.95122 | 7.26663 | 1614 ft | 10 kts | 93° |
| 2026-05-06 20:06 | 49.95071 | 7.26703 | 1614 ft | 7 kts | 179° |
| 2026-05-06 20:06 | 49.95031 | 7.26721 | 1617 ft | 5 kts | 163° |
| 2026-05-06 20:06 | 49.95004 | 7.26730 | 1614 ft | 2 kts | 169° |
| 2026-05-06 20:07 | 49.94999 | 7.26731 | 1614 ft | 0 kts | 170° |
| 2026-05-06 20:12 | 49.94970 | 7.26723 | 1616 ft | 15 kts | 197° |
| 2026-05-06 20:13 | 49.94894 | 7.26625 | 1619 ft | 17 kts | 236° |
| 2026-05-06 20:13 | 49.94789 | 7.26446 | 1618 ft | 20 kts | 192° |
| 2026-05-06 20:13 | 49.94738 | 7.26485 | 1621 ft | 0 kts | 120° |
| 2026-05-06 20:13 | 49.94737 | 7.26488 | 1621 ft | 3 kts | 119° |